createdAt,value
2019-04-03T00:01:50.594Z,6.70
2019-04-03T00:06:25.608Z,6.70
2019-04-03T00:10:58.662Z,6.70
2019-04-03T00:15:30.215Z,7.00
2019-04-03T00:20:02.067Z,6.80
2019-04-03T00:24:34.470Z,7.00
2019-04-03T00:29:06.614Z,7.20
2019-04-03T00:33:38.667Z,7.00
2019-04-03T00:38:09.349Z,7.10
2019-04-03T00:42:42.626Z,6.90
2019-04-03T00:47:17.772Z,7.00
2019-04-03T00:51:52.234Z,6.90
2019-04-03T00:56:26.667Z,7.50
2019-04-03T01:01:20.699Z,6.80
2019-04-03T01:05:52.843Z,6.90
2019-04-03T01:10:25.681Z,6.90
2019-04-03T01:15:01.082Z,6.90
2019-04-03T01:19:36.133Z,6.80
2019-04-03T01:24:08.594Z,6.40
2019-04-03T01:28:42.488Z,6.90
2019-04-03T01:33:20.684Z,6.70
2019-04-03T01:37:54.206Z,6.50
2019-04-03T01:43:05.130Z,6.50
2019-04-03T01:47:40.773Z,6.30
2019-04-03T01:52:12.573Z,6.30
2019-04-03T01:56:44.677Z,6.70
2019-04-03T02:01:17.320Z,6.60
2019-04-03T02:05:52.470Z,6.40
2019-04-03T02:10:43.229Z,6.30
2019-04-03T02:15:17.144Z,6.20
2019-04-03T02:19:52.719Z,5.90
2019-04-03T02:24:23.961Z,9.50
2019-04-03T02:29:00.266Z,6.10
2019-04-03T02:33:32.220Z,5.70
2019-04-03T02:38:04.707Z,6.10
2019-04-03T02:42:40.573Z,5.90
2019-04-03T02:47:12.895Z,5.90
2019-04-03T02:51:45.225Z,5.90
2019-04-03T02:56:17.815Z,5.70
2019-04-03T03:00:52.808Z,5.70
2019-04-03T03:05:29.183Z,5.60
2019-04-03T03:10:02.437Z,5.30
2019-04-03T03:14:34.087Z,5.40
2019-04-03T03:19:04.790Z,5.40
2019-04-03T03:23:37.709Z,5.40
2019-04-03T03:28:15.274Z,5.20
2019-04-03T03:32:49.693Z,5.10
2019-04-03T03:37:24.203Z,5.30
2019-04-03T03:42:05.377Z,4.90
2019-04-03T03:46:40.674Z,4.40
2019-04-03T03:51:16.433Z,5.40
2019-04-03T03:55:56.906Z,5.10
2019-04-03T04:00:31.839Z,4.70
2019-04-03T04:05:03.572Z,5.10
2019-04-03T04:09:40.528Z,5.00
2019-04-03T04:14:12.767Z,4.90
2019-04-03T04:18:45.195Z,4.90
2019-04-03T04:23:16.561Z,4.90
2019-04-03T04:27:49.136Z,4.90
2019-04-03T04:32:24.313Z,5.10
2019-04-03T04:37:02.153Z,5.30
2019-04-03T04:41:52.888Z,4.80
2019-04-03T04:46:25.251Z,5.20
2019-04-03T04:51:00.347Z,5.40
2019-04-03T04:55:34.554Z,5.40
2019-04-03T05:00:08.929Z,5.40
2019-04-03T05:04:43.519Z,5.60
2019-04-03T05:09:20.274Z,5.50
2019-04-03T05:13:52.618Z,5.70
2019-04-03T05:18:24.722Z,6.00
2019-04-03T05:22:56.509Z,5.80
2019-04-03T05:27:34.449Z,6.00
2019-04-03T05:32:13.046Z,5.80
2019-04-03T05:36:44.408Z,6.20
2019-04-03T05:41:20.132Z,6.20
2019-04-03T05:45:52.637Z,6.30
2019-04-03T05:50:26.366Z,6.40
2019-04-03T05:54:57.610Z,6.20
2019-04-03T05:59:29.442Z,6.40
2019-04-03T06:04:02.464Z,6.80
2019-04-03T06:08:35.217Z,6.90
2019-04-03T06:13:08.948Z,7.20
2019-04-03T06:17:43.702Z,7.30
2019-04-03T06:22:22.003Z,3.90
2019-04-03T06:27:13.656Z,7.60
2019-04-03T06:31:45.395Z,7.70
2019-04-03T06:36:18.217Z,8.00
2019-04-03T06:40:52.925Z,8.10
2019-04-03T06:45:26.176Z,8.30
2019-04-03T06:50:00.392Z,8.40
2019-04-03T06:54:34.812Z,8.50
2019-04-03T06:59:09.456Z,8.60
2019-04-03T07:03:41.791Z,8.90
2019-04-03T07:08:13.780Z,8.90
2019-04-03T07:13:04.545Z,9.00
2019-04-03T07:17:38.759Z,9.30
2019-04-03T07:26:41.754Z,9.10
2019-04-03T07:31:33.425Z,9.80
2019-04-03T07:36:24.358Z,9.80
2019-04-03T07:40:56.895Z,12.10
2019-04-03T07:50:22.479Z,10.40
2019-04-03T07:54:56.866Z,10.30
2019-04-03T08:04:05.394Z,11.20
2019-04-03T08:13:24.757Z,10.90
2019-04-03T08:18:02.208Z,11.00
2019-04-03T08:22:35.153Z,11.00
2019-04-03T08:27:08.796Z,11.50
2019-04-03T08:31:43.146Z,11.60
2019-04-03T08:36:23.977Z,11.60
2019-04-03T08:40:51.449Z,11.90
2019-04-03T08:45:27.526Z,11.90
2019-04-03T08:50:06.925Z,12.20
2019-04-03T08:54:43.017Z,12.40
2019-04-03T08:59:15.949Z,12.30
2019-04-03T09:03:53.805Z,12.70
2019-04-03T09:08:30.259Z,12.90
2019-04-03T09:13:16.155Z,13.00
2019-04-03T09:17:42.941Z,13.20
2019-04-03T09:22:13.518Z,13.30
2019-04-03T09:26:48.150Z,13.70
2019-04-03T09:31:22.032Z,14.00
2019-04-03T09:35:53.354Z,14.10
2019-04-03T09:40:33.983Z,14.00
2019-04-03T09:45:06.192Z,14.20
2019-04-03T09:49:42.284Z,14.00
2019-04-03T09:54:11.566Z,14.00
2019-04-03T09:58:43.584Z,14.00
2019-04-03T10:03:15.359Z,14.20
2019-04-03T10:07:47.158Z,14.40
2019-04-03T10:12:19.100Z,14.50
2019-04-03T10:16:51.887Z,14.40
2019-04-03T10:21:48.179Z,14.40
2019-04-03T10:30:53.172Z,14.60
2019-04-03T10:35:31.717Z,14.40
2019-04-03T10:40:04.329Z,14.60
2019-04-03T10:44:35.924Z,14.80
2019-04-03T10:49:07.840Z,15.00
2019-04-03T10:53:42.199Z,15.00
2019-04-03T10:58:12.357Z,15.00
2019-04-03T11:03:04.736Z,15.20
2019-04-03T11:07:39.060Z,15.40
2019-04-03T11:12:12.639Z,15.40
2019-04-03T11:16:45.483Z,15.80
2019-04-03T11:21:22.090Z,15.40
2019-04-03T11:25:51.648Z,15.50
2019-04-03T11:30:25.635Z,15.60
2019-04-03T11:35:02.982Z,16.00
2019-04-03T11:39:37.453Z,15.80
2019-04-03T11:44:10.506Z,15.40
2019-04-03T11:48:43.826Z,15.50
2019-04-03T11:53:15.115Z,15.40
2019-04-03T11:57:49.426Z,15.40
2019-04-03T12:02:23.855Z,15.70
2019-04-03T12:06:56.335Z,15.80
2019-04-03T12:11:32.731Z,16.00
2019-04-03T12:16:04.135Z,15.90
2019-04-03T12:20:34.828Z,15.60
2019-04-03T12:25:07.235Z,15.60
2019-04-03T12:34:32.911Z,15.70
2019-04-03T12:39:07.674Z,15.20
2019-04-03T12:43:43.235Z,15.30
2019-04-03T12:48:17.419Z,15.60
2019-04-03T12:52:50.830Z,15.70
2019-04-03T12:57:23.287Z,15.90
2019-04-03T13:01:55.207Z,16.00
2019-04-03T13:06:27.835Z,16.00
2019-04-03T13:10:59.799Z,15.90
2019-04-03T13:15:31.141Z,16.00
2019-04-03T13:20:05.624Z,15.80
2019-04-03T13:24:43.158Z,15.60
2019-04-03T13:29:15.351Z,15.70
2019-04-03T13:33:47.335Z,15.70
2019-04-03T13:38:21.764Z,15.80
2019-04-03T13:42:55.439Z,15.80
2019-04-03T13:47:30.997Z,15.50
2019-04-03T13:52:08.064Z,15.40
2019-04-03T13:56:43.963Z,15.40
2019-04-03T14:01:15.112Z,15.90
2019-04-03T14:05:47.899Z,15.50
2019-04-03T14:10:26.141Z,15.40
2019-04-03T14:14:59.744Z,15.30
2019-04-03T14:19:43.720Z,15.30
2019-04-03T14:24:08.263Z,15.40
2019-04-03T14:28:43.146Z,15.30
2019-04-03T14:33:18.909Z,15.00
2019-04-03T14:37:58.314Z,15.30
2019-04-03T14:42:33.145Z,15.30
2019-04-03T14:47:06.992Z,15.10
2019-04-03T14:51:44.103Z,15.00
2019-04-03T14:56:16.761Z,14.90
2019-04-03T15:00:50.795Z,15.10
2019-04-03T15:05:24.149Z,15.00
2019-04-03T15:09:57.216Z,14.80
2019-04-03T15:14:30.758Z,14.80
2019-04-03T15:19:03.712Z,15.00
2019-04-03T15:23:40.165Z,14.80
2019-04-03T15:28:10.829Z,14.60
2019-04-03T15:32:43.383Z,14.70
2019-04-03T15:37:35.096Z,14.60
2019-04-03T15:42:10.641Z,14.60
2019-04-03T15:46:43.807Z,14.50
2019-04-03T15:51:15.501Z,14.50
2019-04-03T15:55:48.030Z,14.40
2019-04-03T16:00:23.548Z,14.20
2019-04-03T16:04:58.455Z,14.00
2019-04-03T16:09:30.310Z,13.70
2019-04-03T16:14:03.901Z,13.80
2019-04-03T16:18:36.211Z,13.70
2019-04-03T16:23:11.186Z,13.60
2019-04-03T16:27:44.376Z,13.50
2019-04-03T16:32:16.011Z,13.40
2019-04-03T16:36:51.687Z,13.30
2019-04-03T16:41:45.188Z,13.10
2019-04-03T16:46:15.944Z,13.10
2019-04-03T16:50:52.319Z,13.50
2019-04-03T16:55:46.682Z,12.90
2019-04-03T17:00:24.216Z,12.80
2019-04-03T17:04:58.463Z,12.60
2019-04-03T17:09:37.611Z,12.50
2019-04-03T17:14:12.071Z,12.40
2019-04-03T17:19:03.732Z,12.40
2019-04-03T17:23:34.852Z,12.30
2019-04-03T17:28:10.720Z,12.30
2019-04-03T17:32:46.245Z,12.00
2019-04-03T17:37:22.874Z,12.00
2019-04-03T17:41:53.894Z,11.90
2019-04-03T17:46:27.620Z,11.90
2019-04-03T17:51:02.276Z,11.80
2019-04-03T17:55:32.165Z,11.70
2019-04-03T18:00:26.646Z,11.70
2019-04-03T18:04:59.054Z,11.70
2019-04-03T18:09:32.637Z,11.60
2019-04-03T18:14:26.593Z,11.40
2019-04-03T18:19:04.930Z,11.40
2019-04-03T18:23:39.836Z,11.20
2019-04-03T18:28:12.747Z,11.30
2019-04-03T18:33:05.995Z,11.30
2019-04-03T18:37:43.248Z,11.20
2019-04-03T18:42:16.771Z,11.10
2019-04-03T18:46:50.758Z,11.10
2019-04-03T18:51:24.044Z,11.10
2019-04-03T18:55:55.372Z,11.00
2019-04-03T19:00:28.830Z,11.00
2019-04-03T19:05:02.865Z,11.00
2019-04-03T19:09:35.698Z,10.70
2019-04-03T19:14:07.061Z,10.70
2019-04-03T19:18:42.029Z,10.70
2019-04-03T19:23:13.877Z,10.50
2019-04-03T19:27:57.420Z,10.50
2019-04-03T19:32:32.363Z,10.60
2019-04-03T19:37:24.964Z,10.40
2019-04-03T19:41:58.242Z,10.40
2019-04-03T19:46:35.132Z,10.50
2019-04-03T19:51:10.680Z,10.30
2019-04-03T19:55:42.646Z,10.30
2019-04-03T20:00:16.760Z,10.40
2019-04-03T20:04:50.969Z,10.30
2019-04-03T20:09:24.979Z,10.20
2019-04-03T20:13:55.480Z,10.00
2019-04-03T20:18:32.467Z,10.10
2019-04-03T20:23:06.570Z,10.10
2019-04-03T20:27:39.635Z,10.00
2019-04-03T20:32:13.363Z,10.00
2019-04-03T20:36:51.022Z,9.90
2019-04-03T20:41:23.080Z,9.80
2019-04-03T20:45:57.312Z,9.80
2019-04-03T20:50:31.853Z,7.00
2019-04-03T20:55:04.401Z,9.60
2019-04-03T20:59:33.907Z,9.80
2019-04-03T21:04:07.118Z,9.70
2019-04-03T21:08:39.265Z,9.50
2019-04-03T21:13:15.375Z,9.60
2019-04-03T21:27:33.756Z,9.50
2019-04-03T21:32:06.624Z,9.50
2019-04-03T21:36:39.270Z,9.50
2019-04-03T21:41:11.624Z,9.40
2019-04-03T21:45:50.190Z,9.30
2019-04-03T21:50:23.404Z,9.40
2019-04-03T21:54:58.753Z,9.20
2019-04-03T21:59:32.710Z,9.30
2019-04-03T22:04:24.679Z,9.20
2019-04-03T22:09:00.568Z,9.00
2019-04-03T22:13:34.778Z,9.30
2019-04-03T22:18:08.089Z,10.90
2019-04-03T22:22:40.252Z,9.00
2019-04-03T22:27:13.825Z,9.00
2019-04-03T22:31:48.337Z,8.80
2019-04-03T22:36:22.594Z,8.90
2019-04-03T22:40:54.372Z,8.90
2019-04-03T22:45:27.862Z,8.80
2019-04-03T22:54:35.849Z,8.80
2019-04-03T22:59:08.079Z,8.80
2019-04-03T23:03:39.991Z,8.80
2019-04-03T23:08:32.356Z,8.80
2019-04-03T23:13:05.259Z,8.40
2019-04-03T23:22:11.772Z,8.60
2019-04-03T23:26:43.449Z,8.70
2019-04-03T23:31:16.392Z,8.40
2019-04-03T23:40:36.146Z,8.30
2019-04-03T23:45:08.047Z,8.30
2019-04-03T23:49:41.205Z,8.20
2019-04-03T23:54:13.048Z,8.30
2019-04-03T23:59:14.598Z,7.80
